createdAt,value
2022-08-16T00:03:36.721Z,99479.41
2022-08-16T00:08:42.017Z,99489.34
2022-08-16T00:13:54.202Z,99492.41
2022-08-16T00:18:57.698Z,99491.56
2022-08-16T00:24:04.502Z,99487.19
2022-08-16T00:29:07.986Z,99495.47
2022-08-16T00:34:18.479Z,99493.59
2022-08-16T00:39:23.031Z,99485.84
2022-08-16T00:44:31.945Z,99492.44
2022-08-16T00:49:39.796Z,99506.66
2022-08-16T00:54:49.145Z,99500.06
2022-08-16T00:59:58.657Z,99501.41
2022-08-16T01:05:11.313Z,99502.94
2022-08-16T01:10:16.673Z,99504.78
2022-08-16T01:15:19.902Z,99510.72
2022-08-16T01:20:30.129Z,99511.38
2022-08-16T01:25:37.117Z,99505.47
2022-08-16T01:30:49.530Z,99505.78
2022-08-16T01:35:56.190Z,99502.59
2022-08-16T01:41:04.259Z,99501.56
2022-08-16T01:46:29.875Z,99503.41
2022-08-16T01:51:34.806Z,99502.69
2022-08-16T01:56:44.921Z,99503.69
2022-08-16T02:01:56.285Z,99511.09
2022-08-16T02:07:08.694Z,99500.69
2022-08-16T02:12:50.304Z,99510.34
2022-08-16T02:17:39.964Z,99510.69
2022-08-16T02:22:42.977Z,99506.13
2022-08-16T02:27:51.713Z,99507.66
2022-08-16T02:32:55.374Z,99507.31
2022-08-16T02:38:01.842Z,99509.00
2022-08-16T02:43:13.963Z,99519.63
2022-08-16T02:48:29.550Z,99525.03
2022-08-16T02:53:33.481Z,99515.91
2022-08-16T02:58:37.841Z,99514.22
2022-08-16T03:04:29.001Z,99501.72
2022-08-16T03:09:09.751Z,99516.44
2022-08-16T03:14:21.210Z,99518.28
2022-08-16T03:19:48.798Z,99522.00
2022-08-16T03:24:57.207Z,99532.28
2022-08-16T03:30:16.026Z,99535.44
2022-08-16T03:35:22.646Z,99538.28
2022-08-16T03:40:32.946Z,99547.56
2022-08-16T03:45:38.225Z,99555.53
2022-08-16T03:50:44.324Z,99565.75
2022-08-16T03:56:03.623Z,99559.91
2022-08-16T04:01:07.824Z,99562.13
2022-08-16T04:06:10.969Z,99563.53
2022-08-16T04:11:16.435Z,99570.28
2022-08-16T04:16:21.916Z,99581.66
2022-08-16T04:21:30.871Z,99582.06
2022-08-16T04:26:36.235Z,99580.84
2022-08-16T04:31:40.646Z,99591.78
2022-08-16T04:36:48.904Z,99592.50
2022-08-16T04:41:57.100Z,99583.75
2022-08-16T04:47:02.866Z,99587.44
2022-08-16T04:52:33.349Z,99604.00
2022-08-16T04:57:30.625Z,99599.66
2022-08-16T05:02:41.649Z,99600.00
2022-08-16T05:07:58.276Z,99602.56
2022-08-16T05:13:03.802Z,99613.38
2022-08-16T05:18:08.010Z,99619.22
2022-08-16T05:23:31.725Z,99632.50
2022-08-16T05:28:37.516Z,99635.75
2022-08-16T05:33:44.368Z,99642.84
2022-08-16T05:38:58.171Z,99648.06
2022-08-16T05:44:05.353Z,99647.50
2022-08-16T05:49:39.213Z,99645.69
2022-08-16T05:54:47.783Z,99651.06
2022-08-16T06:00:07.013Z,99652.66
2022-08-16T06:05:22.594Z,99650.38
2022-08-16T06:10:32.424Z,99659.84
2022-08-16T06:15:39.050Z,99663.25
2022-08-16T06:20:55.039Z,99663.91
2022-08-16T06:26:00.417Z,99673.00
2022-08-16T06:31:11.988Z,99685.13
2022-08-16T06:36:20.943Z,99689.00
2022-08-16T06:41:56.905Z,99698.63
2022-08-16T06:47:41.929Z,99698.31
2022-08-16T06:53:08.659Z,99702.81
2022-08-16T06:58:21.703Z,99710.56
2022-08-16T07:03:32.207Z,99715.53
2022-08-16T07:08:38.344Z,99723.88
2022-08-16T07:14:00.288Z,99726.41
2022-08-16T07:19:09.694Z,99727.09
2022-08-16T07:24:29.766Z,99718.75
2022-08-16T07:29:37.500Z,99717.63
2022-08-16T07:34:48.479Z,99727.53
2022-08-16T07:39:54.992Z,99730.78
2022-08-16T07:44:58.733Z,99738.03
2022-08-16T07:50:05.435Z,99733.06
2022-08-16T07:55:13.855Z,99727.72
2022-08-16T08:00:18.731Z,99731.31
2022-08-16T08:05:35.964Z,99744.47
2022-08-16T08:10:42.218Z,99753.81
2022-08-16T08:15:52.945Z,99758.00
2022-08-16T08:20:59.354Z,99748.56
2022-08-16T08:26:10.031Z,99752.94
2022-08-16T08:31:20.501Z,99758.31
2022-08-16T08:36:33.289Z,99759.38
2022-08-16T08:41:42.426Z,99754.59
2022-08-16T08:47:00.350Z,99755.06
2022-08-16T08:52:07.958Z,99754.97
2022-08-16T08:57:12.798Z,99750.13
2022-08-16T09:02:52.591Z,99759.47
2022-08-16T09:08:01.595Z,99748.44
2022-08-16T09:13:21.148Z,99745.28
2022-08-16T09:18:35.900Z,99745.38
2022-08-16T09:23:41.067Z,99740.19
2022-08-16T09:29:15.376Z,99756.91
2022-08-16T09:34:12.964Z,99749.91
2022-08-16T09:39:21.705Z,99748.03
2022-08-16T09:45:11.181Z,99742.09
2022-08-16T09:49:51.035Z,99741.59
2022-08-16T09:54:54.637Z,99745.53
2022-08-16T10:00:00.923Z,99736.97
2022-08-16T10:05:15.090Z,99733.78
2022-08-16T10:10:18.856Z,99733.84
2022-08-16T10:15:35.119Z,99728.97
2022-08-16T10:20:38.750Z,99736.59
2022-08-16T10:27:19.780Z,99725.13
2022-08-16T10:31:07.866Z,99724.84
2022-08-16T10:36:38.786Z,99730.56
2022-08-16T10:41:36.040Z,99732.00
2022-08-16T10:46:42.258Z,99730.50
2022-08-16T10:52:01.865Z,99724.06
2022-08-16T10:57:06.493Z,99730.03
2022-08-16T11:02:57.954Z,99724.78
2022-08-16T11:07:42.954Z,99718.06
2022-08-16T11:12:46.700Z,99720.59
2022-08-16T11:18:48.481Z,99707.28
2022-08-16T11:23:14.143Z,99718.59
2022-08-16T11:33:59.383Z,99724.03
2022-08-16T11:39:02.545Z,99731.47
2022-08-16T11:44:06.451Z,99726.91
2022-08-16T11:49:13.599Z,99726.94
2022-08-16T11:54:21.160Z,99727.13
2022-08-16T11:59:28.647Z,99719.53
2022-08-16T12:04:34.003Z,99717.81
2022-08-16T12:09:41.241Z,99719.34
2022-08-16T12:14:46.046Z,99717.66
2022-08-16T12:19:50.318Z,99717.66
2022-08-16T12:24:53.351Z,99714.78
2022-08-16T12:29:58.709Z,99714.31
2022-08-16T12:35:03.378Z,99717.84
2022-08-16T12:40:24.053Z,99710.06
2022-08-16T12:45:29.386Z,99717.34
2022-08-16T12:50:33.546Z,99719.03
2022-08-16T12:55:41.880Z,99723.09
2022-08-16T13:00:46.852Z,99714.81
2022-08-16T13:05:55.197Z,99717.84
2022-08-16T13:10:58.903Z,99709.91
2022-08-16T13:16:10.733Z,99702.63
2022-08-16T13:21:24.337Z,99702.19
2022-08-16T13:26:29.123Z,99705.22
2022-08-16T13:31:33.825Z,99707.09
2022-08-16T13:36:48.788Z,99703.88
2022-08-16T13:41:56.384Z,99694.59
2022-08-16T13:46:59.290Z,99706.59
2022-08-16T13:52:03.524Z,99691.38
2022-08-16T13:57:06.661Z,99691.19
2022-08-16T14:02:14.576Z,99684.63
2022-08-16T14:07:20.026Z,99681.09
2022-08-16T14:12:28.388Z,99686.97
2022-08-16T14:18:15.931Z,99685.97
2022-08-16T14:22:55.668Z,99686.63
2022-08-16T14:27:58.430Z,99677.50
2022-08-16T14:33:04.263Z,99676.34
2022-08-16T14:38:10.851Z,99678.50
2022-08-16T14:43:16.309Z,99670.56
2022-08-16T14:48:26.087Z,99668.88
2022-08-16T14:53:32.639Z,99664.81
2022-08-16T14:58:38.019Z,99675.44
2022-08-16T15:03:42.263Z,99674.16
2022-08-16T15:08:48.718Z,99671.25
2022-08-16T15:13:54.945Z,99664.28
2022-08-16T15:18:59.091Z,99669.50
2022-08-16T15:24:03.269Z,99672.38
2022-08-16T15:29:08.408Z,99666.28
2022-08-16T15:34:21.870Z,99668.47
2022-08-16T15:39:38.898Z,99670.31
2022-08-16T15:44:52.309Z,99665.53
2022-08-16T15:49:57.885Z,99668.25
2022-08-16T15:55:13.311Z,99653.03
2022-08-16T16:00:27.532Z,99669.13
2022-08-16T16:05:30.580Z,99671.47
2022-08-16T16:10:37.319Z,99675.00
2022-08-16T16:15:43.429Z,99668.38
2022-08-16T16:20:48.089Z,99667.38
2022-08-16T16:25:53.492Z,99661.44
2022-08-16T16:30:56.626Z,99664.13
2022-08-16T16:36:00.111Z,99658.00
2022-08-16T16:41:08.895Z,99661.53
2022-08-16T16:46:41.396Z,99655.00
2022-08-16T16:51:40.950Z,99664.50
2022-08-16T16:56:49.664Z,99660.81
2022-08-16T17:02:00.211Z,99665.63
2022-08-16T17:07:15.983Z,99671.41
2022-08-16T17:12:25.076Z,99669.22
2022-08-16T17:18:00.304Z,99667.72
2022-08-16T17:23:04.882Z,99661.66
2022-08-16T17:28:58.132Z,99668.94
2022-08-16T17:33:37.282Z,99683.66
2022-08-16T17:38:55.861Z,99685.72
2022-08-16T17:44:01.020Z,99679.78
2022-08-16T17:49:03.904Z,99694.84
2022-08-16T17:54:06.819Z,99697.53
2022-08-16T17:59:11.187Z,99706.34
2022-08-16T18:04:14.046Z,99706.34
2022-08-16T18:09:36.815Z,99709.22
2022-08-16T18:14:51.042Z,99711.56
2022-08-16T18:19:55.547Z,99713.44
2022-08-16T18:24:58.293Z,99707.53
2022-08-16T18:30:02.482Z,99721.41
2022-08-16T18:35:05.819Z,99724.28
2022-08-16T18:40:09.937Z,99731.41
2022-08-16T18:45:14.397Z,99728.53
2022-08-16T18:50:17.354Z,99737.00
2022-08-16T18:55:20.706Z,99739.38
2022-08-16T19:00:28.425Z,99746.81
2022-08-16T19:05:31.857Z,99759.19
2022-08-16T19:10:34.750Z,99757.66
2022-08-16T19:15:39.165Z,99767.19
2022-08-16T19:20:42.035Z,99771.75
2022-08-16T19:25:49.535Z,99775.50
2022-08-16T19:30:57.083Z,99777.84
2022-08-16T19:35:59.849Z,99778.88
2022-08-16T19:41:02.583Z,99784.69
2022-08-16T19:46:07.291Z,99790.59
2022-08-16T19:51:10.140Z,99796.69
2022-08-16T19:56:13.180Z,99796.19
2022-08-16T20:01:17.865Z,99798.72
2022-08-16T20:06:38.086Z,99799.06
2022-08-16T20:11:41.596Z,99797.56
2022-08-16T20:16:46.692Z,99795.69
2022-08-16T20:21:49.822Z,99796.03
2022-08-16T20:26:52.599Z,99801.13
2022-08-16T20:31:56.800Z,99801.13
2022-08-16T20:36:59.609Z,99797.56
2022-08-16T20:42:02.442Z,99800.09
2022-08-16T20:47:07.111Z,99791.81
2022-08-16T20:52:10.653Z,99799.25
2022-08-16T20:57:13.573Z,99803.19
2022-08-16T21:02:24.818Z,99809.59
2022-08-16T21:07:27.582Z,99810.78
2022-08-16T21:12:33.818Z,99815.19
2022-08-16T21:17:41.830Z,99812.81
2022-08-16T21:22:47.141Z,99816.19
2022-08-16T21:28:41.272Z,99817.69
2022-08-16T21:33:18.226Z,99815.34
2022-08-16T21:38:28.612Z,99821.44
2022-08-16T21:43:33.546Z,99822.28
2022-08-16T21:48:40.508Z,99820.94
2022-08-16T21:53:43.805Z,99830.59
2022-08-16T21:58:46.580Z,99831.06
2022-08-16T22:03:57.993Z,99827.38
2022-08-16T22:09:19.815Z,99839.06
2022-08-16T22:14:22.646Z,99831.44
2022-08-16T22:19:26.847Z,99836.34
2022-08-16T22:24:29.724Z,99835.19
2022-08-16T22:29:32.480Z,99834.13
2022-08-16T22:34:36.622Z,99842.44
2022-08-16T22:39:39.472Z,99840.44
2022-08-16T22:44:46.308Z,99849.59
2022-08-16T22:49:50.746Z,99844.50
2022-08-16T22:54:53.619Z,99835.34
2022-08-16T22:59:56.353Z,99840.78
2022-08-16T23:05:00.434Z,99837.06
2022-08-16T23:10:03.208Z,99836.72
2022-08-16T23:15:06.839Z,99828.09
2022-08-16T23:20:12.527Z,99830.09
2022-08-16T23:25:19.650Z,99831.66
2022-08-16T23:30:22.555Z,99830.81
2022-08-16T23:35:27.742Z,99827.25
2022-08-16T23:40:48.376Z,99823.34
2022-08-16T23:45:52.600Z,99819.13
2022-08-16T23:50:56.993Z,99822.66
2022-08-16T23:56:00.939Z,99821.66
